sensor_id;sensor_type;location;lat;lon;timestamp;P1;durP1;ratioP1;P2;durP2;ratioP2
1811;SDS011;904;47.814;11.134;2023-05-15T00:02:05;6.60;;;3.90;;
1811;SDS011;904;47.814;11.134;2023-05-15T00:04:33;4.90;;;4.03;;
1811;SDS011;904;47.814;11.134;2023-05-15T00:07:08;6.80;;;4.43;;
1811;SDS011;904;47.814;11.134;2023-05-15T00:09:40;9.40;;;3.93;;
1811;SDS011;904;47.814;11.134;2023-05-15T00:12:12;5.53;;;4.07;;
1811;SDS011;904;47.814;11.134;2023-05-15T00:14:47;5.03;;;3.60;;
1811;SDS011;904;47.814;11.134;2023-05-15T00:17:24;15.10;;;5.03;;
1811;SDS011;904;47.814;11.134;2023-05-15T00:19:53;5.32;;;4.25;;
1811;SDS011;904;47.814;11.134;2023-05-15T00:22:25;4.80;;;3.50;;
1811;SDS011;904;47.814;11.134;2023-05-15T00:24:56;8.10;;;4.70;;
1811;SDS011;904;47.814;11.134;2023-05-15T00:27:26;7.85;;;4.97;;
1811;SDS011;904;47.814;11.134;2023-05-15T00:30:00;4.65;;;3.65;;
1811;SDS011;904;47.814;11.134;2023-05-15T00:32:30;7.93;;;4.40;;
1811;SDS011;904;47.814;11.134;2023-05-15T00:35:00;6.10;;;4.33;;
1811;SDS011;904;47.814;11.134;2023-05-15T00:37:27;6.00;;;4.40;;
1811;SDS011;904;47.814;11.134;2023-05-15T00:40:02;7.13;;;4.70;;
1811;SDS011;904;47.814;11.134;2023-05-15T00:42:42;5.83;;;4.30;;
1811;SDS011;904;47.814;11.134;2023-05-15T00:45:15;6.40;;;5.47;;
1811;SDS011;904;47.814;11.134;2023-05-15T00:47:43;5.70;;;4.20;;
1811;SDS011;904;47.814;11.134;2023-05-15T00:50:15;7.37;;;4.63;;
1811;SDS011;904;47.814;11.134;2023-05-15T00:52:45;7.10;;;3.90;;
1811;SDS011;904;47.814;11.134;2023-05-15T00:55:23;5.85;;;4.10;;
1811;SDS011;904;47.814;11.134;2023-05-15T00:58:10;4.83;;;3.87;;
1811;SDS011;904;47.814;11.134;2023-05-15T01:00:54;4.90;;;4.00;;
1811;SDS011;904;47.814;11.134;2023-05-15T01:03:26;12.80;;;3.30;;
1811;SDS011;904;47.814;11.134;2023-05-15T01:05:54;5.82;;;4.22;;
1811;SDS011;904;47.814;11.134;2023-05-15T01:08:30;4.60;;;3.80;;
1811;SDS011;904;47.814;11.134;2023-05-15T01:11:03;8.17;;;4.13;;
1811;SDS011;904;47.814;11.134;2023-05-15T01:13:37;5.95;;;4.00;;
1811;SDS011;904;47.814;11.134;2023-05-15T01:16:09;5.00;;;3.80;;
1811;SDS011;904;47.814;11.134;2023-05-15T01:18:38;5.50;;;4.50;;
1811;SDS011;904;47.814;11.134;2023-05-15T01:24:27;4.10;;;3.33;;
1811;SDS011;904;47.814;11.134;2023-05-15T01:27:13;5.20;;;4.17;;
1811;SDS011;904;47.814;11.134;2023-05-15T01:29:49;7.10;;;4.50;;
1811;SDS011;904;47.814;11.134;2023-05-15T01:32:27;10.10;;;4.75;;
1811;SDS011;904;47.814;11.134;2023-05-15T01:35:02;5.40;;;4.30;;
1811;SDS011;904;47.814;11.134;2023-05-15T01:37:36;7.40;;;5.07;;
1811;SDS011;904;47.814;11.134;2023-05-15T01:40:12;6.80;;;4.47;;
1811;SDS011;904;47.814;11.134;2023-05-15T01:42:45;5.90;;;4.13;;
1811;SDS011;904;47.814;11.134;2023-05-15T01:45:18;8.37;;;5.27;;
1811;SDS011;904;47.814;11.134;2023-05-15T01:47:49;6.87;;;4.57;;
1811;SDS011;904;47.814;11.134;2023-05-15T01:50:18;7.33;;;5.30;;
1811;SDS011;904;47.814;11.134;2023-05-15T01:52:47;6.00;;;4.73;;
1811;SDS011;904;47.814;11.134;2023-05-15T01:55:20;7.23;;;5.00;;
1811;SDS011;904;47.814;11.134;2023-05-15T01:57:51;5.50;;;4.00;;
1811;SDS011;904;47.814;11.134;2023-05-15T02:00:23;6.20;;;4.90;;
1811;SDS011;904;47.814;11.134;2023-05-15T02:02:53;8.43;;;6.03;;
1811;SDS011;904;47.814;11.134;2023-05-15T02:05:22;6.50;;;4.60;;
1811;SDS011;904;47.814;11.134;2023-05-15T02:07:50;6.30;;;5.20;;
1811;SDS011;904;47.814;11.134;2023-05-15T02:10:18;7.95;;;5.20;;
1811;SDS011;904;47.814;11.134;2023-05-15T02:12:53;5.70;;;4.60;;
1811;SDS011;904;47.814;11.134;2023-05-15T02:15:22;10.50;;;6.67;;
1811;SDS011;904;47.814;11.134;2023-05-15T02:17:54;7.85;;;6.07;;
1811;SDS011;904;47.814;11.134;2023-05-15T02:20:22;6.97;;;6.13;;
1811;SDS011;904;47.814;11.134;2023-05-15T02:22:52;7.27;;;5.80;;
1811;SDS011;904;47.814;11.134;2023-05-15T02:25:28;7.05;;;5.80;;
1811;SDS011;904;47.814;11.134;2023-05-15T02:28:04;7.23;;;6.50;;
1811;SDS011;904;47.814;11.134;2023-05-15T02:30:37;6.90;;;5.27;;
1811;SDS011;904;47.814;11.134;2023-05-15T02:33:12;8.55;;;6.85;;
1811;SDS011;904;47.814;11.134;2023-05-15T02:35:58;8.35;;;6.25;;
1811;SDS011;904;47.814;11.134;2023-05-15T02:38:32;5.55;;;4.75;;
1811;SDS011;904;47.814;11.134;2023-05-15T02:41:04;6.78;;;4.63;;
1811;SDS011;904;47.814;11.134;2023-05-15T02:43:38;5.68;;;4.50;;
1811;SDS011;904;47.814;11.134;2023-05-15T02:46:06;9.43;;;4.43;;
1811;SDS011;904;47.814;11.134;2023-05-15T02:48:34;5.13;;;4.10;;
1811;SDS011;904;47.814;11.134;2023-05-15T02:51:05;4.97;;;3.80;;
1811;SDS011;904;47.814;11.134;2023-05-15T02:53:38;6.35;;;5.30;;
1811;SDS011;904;47.814;11.134;2023-05-15T02:56:06;5.47;;;4.20;;
1811;SDS011;904;47.814;11.134;2023-05-15T02:58:38;4.50;;;3.43;;
1811;SDS011;904;47.814;11.134;2023-05-15T03:01:07;8.27;;;4.23;;
1811;SDS011;904;47.814;11.134;2023-05-15T03:03:34;8.20;;;5.20;;
1811;SDS011;904;47.814;11.134;2023-05-15T03:06:02;4.25;;;3.40;;
1811;SDS011;904;47.814;11.134;2023-05-15T03:08:29;6.80;;;4.20;;
1811;SDS011;904;47.814;11.134;2023-05-15T03:10:59;5.10;;;4.30;;
1811;SDS011;904;47.814;11.134;2023-05-15T03:13:27;5.78;;;4.07;;
1811;SDS011;904;47.814;11.134;2023-05-15T03:15:59;5.00;;;3.90;;
1811;SDS011;904;47.814;11.134;2023-05-15T03:18:28;6.18;;;4.82;;
1811;SDS011;904;47.814;11.134;2023-05-15T03:20:59;6.30;;;4.63;;
1811;SDS011;904;47.814;11.134;2023-05-15T03:23:33;9.10;;;5.00;;
1811;SDS011;904;47.814;11.134;2023-05-15T03:26:04;5.82;;;4.82;;
1811;SDS011;904;47.814;11.134;2023-05-15T03:28:32;4.87;;;3.80;;
1811;SDS011;904;47.814;11.134;2023-05-15T03:31:03;8.27;;;5.10;;
1811;SDS011;904;47.814;11.134;2023-05-15T03:33:32;5.60;;;4.93;;
1811;SDS011;904;47.814;11.134;2023-05-15T03:36:01;16.23;;;5.90;;
1811;SDS011;904;47.814;11.134;2023-05-15T03:38:33;8.10;;;5.57;;
1811;SDS011;904;47.814;11.134;2023-05-15T03:41:02;6.37;;;5.13;;
1811;SDS011;904;47.814;11.134;2023-05-15T03:43:30;6.95;;;4.93;;
1811;SDS011;904;47.814;11.134;2023-05-15T03:45:58;6.90;;;5.50;;
1811;SDS011;904;47.814;11.134;2023-05-15T03:48:32;8.53;;;5.30;;
1811;SDS011;904;47.814;11.134;2023-05-15T03:51:02;7.30;;;5.30;;
1811;SDS011;904;47.814;11.134;2023-05-15T03:53:29;6.53;;;4.85;;
1811;SDS011;904;47.814;11.134;2023-05-15T03:56:02;5.90;;;4.60;;
1811;SDS011;904;47.814;11.134;2023-05-15T03:58:30;8.95;;;6.47;;
1811;SDS011;904;47.814;11.134;2023-05-15T04:00:58;7.10;;;5.70;;
1811;SDS011;904;47.814;11.134;2023-05-15T04:03:26;6.60;;;5.67;;
1811;SDS011;904;47.814;11.134;2023-05-15T04:05:57;5.80;;;4.60;;
1811;SDS011;904;47.814;11.134;2023-05-15T04:08:34;6.83;;;5.20;;
1811;SDS011;904;47.814;11.134;2023-05-15T04:11:04;6.60;;;4.33;;
1811;SDS011;904;47.814;11.134;2023-05-15T04:13:32;6.47;;;4.93;;
1811;SDS011;904;47.814;11.134;2023-05-15T04:16:03;5.65;;;4.78;;
1811;SDS011;904;47.814;11.134;2023-05-15T04:18:36;5.43;;;4.20;;
1811;SDS011;904;47.814;11.134;2023-05-15T04:21:06;6.23;;;5.07;;
1811;SDS011;904;47.814;11.134;2023-05-15T04:23:34;6.50;;;5.00;;
1811;SDS011;904;47.814;11.134;2023-05-15T04:26:06;5.70;;;4.50;;
1811;SDS011;904;47.814;11.134;2023-05-15T04:28:33;6.00;;;5.00;;
1811;SDS011;904;47.814;11.134;2023-05-15T04:31:05;5.57;;;4.60;;
1811;SDS011;904;47.814;11.134;2023-05-15T04:33:40;6.30;;;4.60;;
1811;SDS011;904;47.814;11.134;2023-05-15T04:36:08;7.33;;;5.03;;
1811;SDS011;904;47.814;11.134;2023-05-15T04:38:37;4.80;;;4.30;;
1811;SDS011;904;47.814;11.134;2023-05-15T04:41:11;5.57;;;4.57;;
1811;SDS011;904;47.814;11.134;2023-05-15T04:43:39;6.13;;;4.73;;
1811;SDS011;904;47.814;11.134;2023-05-15T04:46:08;6.10;;;4.77;;
1811;SDS011;904;47.814;11.134;2023-05-15T04:48:41;6.50;;;4.90;;
1811;SDS011;904;47.814;11.134;2023-05-15T04:51:09;5.70;;;4.30;;
1811;SDS011;904;47.814;11.134;2023-05-15T04:53:39;5.20;;;4.13;;
1811;SDS011;904;47.814;11.134;2023-05-15T04:56:10;5.57;;;4.00;;
1811;SDS011;904;47.814;11.134;2023-05-15T04:58:41;6.90;;;4.90;;
1811;SDS011;904;47.814;11.134;2023-05-15T05:01:15;7.60;;;4.53;;
1811;SDS011;904;47.814;11.134;2023-05-15T05:03:44;5.40;;;4.03;;
1811;SDS011;904;47.814;11.134;2023-05-15T05:06:14;4.80;;;3.80;;
1811;SDS011;904;47.814;11.134;2023-05-15T05:08:45;7.60;;;4.97;;
1811;SDS011;904;47.814;11.134;2023-05-15T05:11:13;7.53;;;4.23;;
1811;SDS011;904;47.814;11.134;2023-05-15T05:13:42;6.60;;;5.97;;
1811;SDS011;904;47.814;11.134;2023-05-15T05:16:13;9.27;;;6.63;;
1811;SDS011;904;47.814;11.134;2023-05-15T05:18:44;7.70;;;6.07;;
1811;SDS011;904;47.814;11.134;2023-05-15T05:21:20;6.27;;;4.83;;
1811;SDS011;904;47.814;11.134;2023-05-15T05:23:48;6.33;;;4.23;;
1811;SDS011;904;47.814;11.134;2023-05-15T05:26:29;6.70;;;4.07;;
1811;SDS011;904;47.814;11.134;2023-05-15T05:29:04;4.50;;;3.60;;
1811;SDS011;904;47.814;11.134;2023-05-15T05:31:37;5.70;;;3.60;;
1811;SDS011;904;47.814;11.134;2023-05-15T05:34:11;5.83;;;4.17;;
1811;SDS011;904;47.814;11.134;2023-05-15T05:36:42;6.40;;;4.10;;
1811;SDS011;904;47.814;11.134;2023-05-15T05:39:09;5.27;;;3.80;;
1811;SDS011;904;47.814;11.134;2023-05-15T05:41:41;5.40;;;3.87;;
1811;SDS011;904;47.814;11.134;2023-05-15T05:44:08;5.93;;;4.13;;
1811;SDS011;904;47.814;11.134;2023-05-15T05:46:38;5.57;;;4.90;;
1811;SDS011;904;47.814;11.134;2023-05-15T05:49:05;8.20;;;5.00;;
1811;SDS011;904;47.814;11.134;2023-05-15T05:51:39;5.90;;;5.30;;
1811;SDS011;904;47.814;11.134;2023-05-15T05:54:06;6.37;;;5.13;;
1811;SDS011;904;47.814;11.134;2023-05-15T05:56:33;8.40;;;5.50;;
1811;SDS011;904;47.814;11.134;2023-05-15T05:59:00;6.87;;;5.33;;
1811;SDS011;904;47.814;11.134;2023-05-15T06:01:28;6.70;;;4.87;;
1811;SDS011;904;47.814;11.134;2023-05-15T06:03:55;6.80;;;5.10;;
1811;SDS011;904;47.814;11.134;2023-05-15T06:06:24;6.30;;;5.60;;
1811;SDS011;904;47.814;11.134;2023-05-15T06:08:57;7.70;;;4.77;;
1811;SDS011;904;47.814;11.134;2023-05-15T06:11:24;7.80;;;4.40;;
1811;SDS011;904;47.814;11.134;2023-05-15T06:13:52;5.40;;;4.70;;
1811;SDS011;904;47.814;11.134;2023-05-15T06:16:31;7.10;;;5.63;;
1811;SDS011;904;47.814;11.134;2023-05-15T06:19:05;5.13;;;4.13;;
1811;SDS011;904;47.814;11.134;2023-05-15T06:21:33;9.10;;;4.80;;
1811;SDS011;904;47.814;11.134;2023-05-15T06:24:00;6.30;;;4.80;;
1811;SDS011;904;47.814;11.134;2023-05-15T06:26:28;6.63;;;4.77;;
1811;SDS011;904;47.814;11.134;2023-05-15T06:28:57;8.40;;;4.87;;
1811;SDS011;904;47.814;11.134;2023-05-15T06:31:31;7.20;;;6.00;;
1811;SDS011;904;47.814;11.134;2023-05-15T06:33:58;7.00;;;6.30;;
1811;SDS011;904;47.814;11.134;2023-05-15T06:36:27;7.77;;;5.90;;
1811;SDS011;904;47.814;11.134;2023-05-15T06:38:56;6.20;;;4.57;;
1811;SDS011;904;47.814;11.134;2023-05-15T06:41:24;5.93;;;5.23;;
1811;SDS011;904;47.814;11.134;2023-05-15T06:43:51;6.77;;;4.93;;
1811;SDS011;904;47.814;11.134;2023-05-15T06:46:19;6.80;;;4.73;;
1811;SDS011;904;47.814;11.134;2023-05-15T06:48:48;7.27;;;4.40;;
1811;SDS011;904;47.814;11.134;2023-05-15T06:51:22;6.43;;;4.10;;
1811;SDS011;904;47.814;11.134;2023-05-15T06:53:50;6.40;;;5.40;;
1811;SDS011;904;47.814;11.134;2023-05-15T06:56:19;7.03;;;6.00;;
1811;SDS011;904;47.814;11.134;2023-05-15T06:58:48;8.97;;;5.90;;
1811;SDS011;904;47.814;11.134;2023-05-15T07:01:15;6.33;;;4.33;;
1811;SDS011;904;47.814;11.134;2023-05-15T07:03:42;6.10;;;4.13;;
1811;SDS011;904;47.814;11.134;2023-05-15T07:06:11;6.53;;;4.40;;
1811;SDS011;904;47.814;11.134;2023-05-15T07:08:38;7.50;;;5.20;;
1811;SDS011;904;47.814;11.134;2023-05-15T07:11:05;6.17;;;4.27;;
1811;SDS011;904;47.814;11.134;2023-05-15T07:13:32;6.47;;;4.70;;
1811;SDS011;904;47.814;11.134;2023-05-15T07:16:00;6.13;;;5.43;;
1811;SDS011;904;47.814;11.134;2023-05-15T07:18:27;6.13;;;4.27;;
1811;SDS011;904;47.814;11.134;2023-05-15T07:20:56;6.10;;;4.70;;
1811;SDS011;904;47.814;11.134;2023-05-15T07:23:25;6.40;;;4.40;;
1811;SDS011;904;47.814;11.134;2023-05-15T07:25:52;5.63;;;4.03;;
1811;SDS011;904;47.814;11.134;2023-05-15T07:28:20;5.80;;;4.43;;
1811;SDS011;904;47.814;11.134;2023-05-15T07:30:47;6.67;;;4.77;;
1811;SDS011;904;47.814;11.134;2023-05-15T07:33:14;6.50;;;5.23;;
1811;SDS011;904;47.814;11.134;2023-05-15T07:35:41;6.60;;;5.17;;
1811;SDS011;904;47.814;11.134;2023-05-15T07:38:08;6.70;;;4.33;;
1811;SDS011;904;47.814;11.134;2023-05-15T07:40:38;5.67;;;4.50;;
1811;SDS011;904;47.814;11.134;2023-05-15T07:43:05;6.13;;;4.60;;
1811;SDS011;904;47.814;11.134;2023-05-15T07:45:32;5.23;;;4.20;;
1811;SDS011;904;47.814;11.134;2023-05-15T07:50:44;6.23;;;5.10;;
1811;SDS011;904;47.814;11.134;2023-05-15T07:53:16;6.30;;;4.90;;
1811;SDS011;904;47.814;11.134;2023-05-15T07:55:45;5.87;;;4.80;;
1811;SDS011;904;47.814;11.134;2023-05-15T07:58:12;7.20;;;4.97;;
1811;SDS011;904;47.814;11.134;2023-05-15T08:00:39;8.87;;;6.60;;
1811;SDS011;904;47.814;11.134;2023-05-15T08:03:06;7.77;;;5.47;;
1811;SDS011;904;47.814;11.134;2023-05-15T08:05:33;10.33;;;5.97;;
1811;SDS011;904;47.814;11.134;2023-05-15T08:08:00;9.03;;;5.50;;
1811;SDS011;904;47.814;11.134;2023-05-15T08:10:27;9.57;;;4.33;;
1811;SDS011;904;47.814;11.134;2023-05-15T08:12:55;3.87;;;2.80;;
1811;SDS011;904;47.814;11.134;2023-05-15T08:15:22;3.90;;;2.87;;
1811;SDS011;904;47.814;11.134;2023-05-15T08:17:49;4.53;;;2.47;;
1811;SDS011;904;47.814;11.134;2023-05-15T08:20:16;4.50;;;3.23;;
1811;SDS011;904;47.814;11.134;2023-05-15T08:22:43;9.90;;;3.50;;
1811;SDS011;904;47.814;11.134;2023-05-15T08:25:10;7.97;;;3.23;;
1811;SDS011;904;47.814;11.134;2023-05-15T08:27:37;4.67;;;3.47;;
1811;SDS011;904;47.814;11.134;2023-05-15T08:30:06;4.13;;;3.17;;
1811;SDS011;904;47.814;11.134;2023-05-15T08:32:34;4.70;;;2.90;;
1811;SDS011;904;47.814;11.134;2023-05-15T08:35:01;7.40;;;3.47;;
1811;SDS011;904;47.814;11.134;2023-05-15T08:37:29;7.63;;;3.50;;
1811;SDS011;904;47.814;11.134;2023-05-15T08:39:57;5.73;;;3.93;;
1811;SDS011;904;47.814;11.134;2023-05-15T08:42:27;4.80;;;3.27;;
1811;SDS011;904;47.814;11.134;2023-05-15T08:44:59;6.83;;;2.90;;
1811;SDS011;904;47.814;11.134;2023-05-15T08:47:28;4.20;;;2.70;;
1811;SDS011;904;47.814;11.134;2023-05-15T08:49:58;4.30;;;3.03;;
1811;SDS011;904;47.814;11.134;2023-05-15T08:52:31;3.90;;;2.90;;
1811;SDS011;904;47.814;11.134;2023-05-15T08:54:59;3.87;;;2.50;;
1811;SDS011;904;47.814;11.134;2023-05-15T08:57:26;4.40;;;3.60;;
1811;SDS011;904;47.814;11.134;2023-05-15T08:59:55;8.33;;;3.70;;
1811;SDS011;904;47.814;11.134;2023-05-15T09:02:23;4.87;;;2.97;;
1811;SDS011;904;47.814;11.134;2023-05-15T09:04:52;3.80;;;2.90;;
1811;SDS011;904;47.814;11.134;2023-05-15T09:07:19;4.70;;;3.40;;
1811;SDS011;904;47.814;11.134;2023-05-15T09:09:47;6.23;;;4.90;;
1811;SDS011;904;47.814;11.134;2023-05-15T09:12:15;5.13;;;4.20;;
1811;SDS011;904;47.814;11.134;2023-05-15T09:14:43;16.60;;;3.77;;
1811;SDS011;904;47.814;11.134;2023-05-15T09:17:10;4.27;;;3.03;;
1811;SDS011;904;47.814;11.134;2023-05-15T09:19:37;6.20;;;3.90;;
1811;SDS011;904;47.814;11.134;2023-05-15T09:22:15;5.53;;;4.10;;
1811;SDS011;904;47.814;11.134;2023-05-15T09:24:47;5.50;;;4.17;;
1811;SDS011;904;47.814;11.134;2023-05-15T09:27:17;6.80;;;4.77;;
1811;SDS011;904;47.814;11.134;2023-05-15T09:29:45;12.83;;;5.73;;
1811;SDS011;904;47.814;11.134;2023-05-15T09:32:13;7.23;;;4.37;;
1811;SDS011;904;47.814;11.134;2023-05-15T09:34:41;9.77;;;5.57;;
1811;SDS011;904;47.814;11.134;2023-05-15T09:37:09;8.10;;;5.70;;
1811;SDS011;904;47.814;11.134;2023-05-15T09:39:56;9.00;;;4.70;;
1811;SDS011;904;47.814;11.134;2023-05-15T09:42:34;15.30;;;6.83;;
1811;SDS011;904;47.814;11.134;2023-05-15T09:45:03;9.90;;;5.37;;
1811;SDS011;904;47.814;11.134;2023-05-15T09:47:36;6.43;;;4.57;;
1811;SDS011;904;47.814;11.134;2023-05-15T09:50:04;8.20;;;4.03;;
1811;SDS011;904;47.814;11.134;2023-05-15T09:52:34;4.43;;;3.40;;
1811;SDS011;904;47.814;11.134;2023-05-15T09:55:03;9.27;;;4.77;;
1811;SDS011;904;47.814;11.134;2023-05-15T09:57:31;6.30;;;4.30;;
1811;SDS011;904;47.814;11.134;2023-05-15T09:59:59;5.07;;;4.03;;
1811;SDS011;904;47.814;11.134;2023-05-15T10:02:29;7.13;;;4.70;;
1811;SDS011;904;47.814;11.134;2023-05-15T10:04:57;6.17;;;3.90;;
1811;SDS011;904;47.814;11.134;2023-05-15T10:07:28;5.23;;;3.33;;
1811;SDS011;904;47.814;11.134;2023-05-15T10:09:56;4.77;;;3.47;;
1811;SDS011;904;47.814;11.134;2023-05-15T10:12:25;4.17;;;3.03;;
1811;SDS011;904;47.814;11.134;2023-05-15T10:14:54;3.90;;;2.37;;
1811;SDS011;904;47.814;11.134;2023-05-15T10:17:22;6.87;;;2.90;;
1811;SDS011;904;47.814;11.134;2023-05-15T10:19:50;3.50;;;2.50;;
1811;SDS011;904;47.814;11.134;2023-05-15T10:22:18;7.80;;;2.67;;
1811;SDS011;904;47.814;11.134;2023-05-15T10:24:48;3.53;;;2.70;;
1811;SDS011;904;47.814;11.134;2023-05-15T10:27:27;3.70;;;2.50;;
1811;SDS011;904;47.814;11.134;2023-05-15T10:29:55;3.10;;;2.30;;
1811;SDS011;904;47.814;11.134;2023-05-15T10:32:23;3.50;;;2.40;;
1811;SDS011;904;47.814;11.134;2023-05-15T10:34:52;3.77;;;2.40;;
1811;SDS011;904;47.814;11.134;2023-05-15T10:37:19;3.63;;;2.50;;
1811;SDS011;904;47.814;11.134;2023-05-15T10:39:48;3.73;;;2.40;;
1811;SDS011;904;47.814;11.134;2023-05-15T10:42:16;3.47;;;2.70;;
1811;SDS011;904;47.814;11.134;2023-05-15T10:44:48;7.93;;;6.07;;
1811;SDS011;904;47.814;11.134;2023-05-15T10:47:15;4.00;;;3.00;;
1811;SDS011;904;47.814;11.134;2023-05-15T10:49:42;2.83;;;1.87;;
1811;SDS011;904;47.814;11.134;2023-05-15T10:52:11;3.80;;;2.23;;
1811;SDS011;904;47.814;11.134;2023-05-15T10:54:38;4.00;;;2.37;;
1811;SDS011;904;47.814;11.134;2023-05-15T10:57:05;2.87;;;2.03;;
1811;SDS011;904;47.814;11.134;2023-05-15T10:59:33;3.13;;;2.23;;
1811;SDS011;904;47.814;11.134;2023-05-15T11:02:21;3.07;;;2.27;;
1811;SDS011;904;47.814;11.134;2023-05-15T11:04:53;3.43;;;2.10;;
1811;SDS011;904;47.814;11.134;2023-05-15T11:07:21;3.70;;;2.83;;
1811;SDS011;904;47.814;11.134;2023-05-15T11:09:49;4.03;;;2.63;;
1811;SDS011;904;47.814;11.134;2023-05-15T11:12:17;3.87;;;2.30;;
1811;SDS011;904;47.814;11.134;2023-05-15T11:18:02;3.20;;;2.17;;
1811;SDS011;904;47.814;11.134;2023-05-15T11:20:36;3.10;;;2.20;;
1811;SDS011;904;47.814;11.134;2023-05-15T11:23:04;4.10;;;2.63;;
1811;SDS011;904;47.814;11.134;2023-05-15T11:25:32;4.10;;;2.87;;
1811;SDS011;904;47.814;11.134;2023-05-15T11:28:01;5.00;;;1.90;;
1811;SDS011;904;47.814;11.134;2023-05-15T11:30:36;3.80;;;2.30;;
1811;SDS011;904;47.814;11.134;2023-05-15T11:33:06;3.87;;;2.43;;
1811;SDS011;904;47.814;11.134;2023-05-15T11:35:36;2.90;;;2.03;;
1811;SDS011;904;47.814;11.134;2023-05-15T11:38:10;4.77;;;2.20;;
1811;SDS011;904;47.814;11.134;2023-05-15T11:40:45;3.67;;;2.60;;
1811;SDS011;904;47.814;11.134;2023-05-15T11:43:16;3.17;;;1.90;;
1811;SDS011;904;47.814;11.134;2023-05-15T11:45:45;3.20;;;1.90;;
1811;SDS011;904;47.814;11.134;2023-05-15T11:48:15;3.40;;;2.70;;
1811;SDS011;904;47.814;11.134;2023-05-15T11:50:43;4.17;;;2.93;;
1811;SDS011;904;47.814;11.134;2023-05-15T11:53:10;3.20;;;2.30;;
1811;SDS011;904;47.814;11.134;2023-05-15T11:55:38;3.33;;;2.20;;
1811;SDS011;904;47.814;11.134;2023-05-15T11:58:09;3.27;;;2.53;;
1811;SDS011;904;47.814;11.134;2023-05-15T12:00:39;4.50;;;2.53;;
1811;SDS011;904;47.814;11.134;2023-05-15T12:03:10;6.30;;;3.30;;
1811;SDS011;904;47.814;11.134;2023-05-15T12:05:41;4.00;;;2.20;;
1811;SDS011;904;47.814;11.134;2023-05-15T12:08:09;3.17;;;2.40;;
1811;SDS011;904;47.814;11.134;2023-05-15T12:10:40;3.47;;;2.40;;
1811;SDS011;904;47.814;11.134;2023-05-15T12:13:08;3.40;;;2.40;;
1811;SDS011;904;47.814;11.134;2023-05-15T12:15:36;4.20;;;2.43;;
1811;SDS011;904;47.814;11.134;2023-05-15T12:18:04;3.37;;;2.50;;
1811;SDS011;904;47.814;11.134;2023-05-15T12:20:34;3.23;;;2.17;;
1811;SDS011;904;47.814;11.134;2023-05-15T12:23:02;3.20;;;2.33;;
1811;SDS011;904;47.814;11.134;2023-05-15T12:25:32;5.53;;;2.43;;
1811;SDS011;904;47.814;11.134;2023-05-15T12:28:01;4.33;;;2.33;;
1811;SDS011;904;47.814;11.134;2023-05-15T12:30:29;4.13;;;2.87;;
1811;SDS011;904;47.814;11.134;2023-05-15T12:32:59;4.70;;;3.53;;
1811;SDS011;904;47.814;11.134;2023-05-15T12:35:28;7.90;;;3.87;;
1811;SDS011;904;47.814;11.134;2023-05-15T12:37:56;7.30;;;3.40;;
1811;SDS011;904;47.814;11.134;2023-05-15T12:40:23;6.47;;;3.50;;
1811;SDS011;904;47.814;11.134;2023-05-15T12:42:52;4.67;;;2.70;;
1811;SDS011;904;47.814;11.134;2023-05-15T12:45:20;7.50;;;3.00;;
1811;SDS011;904;47.814;11.134;2023-05-15T12:47:48;3.73;;;2.57;;
1811;SDS011;904;47.814;11.134;2023-05-15T12:50:16;3.97;;;2.63;;
1811;SDS011;904;47.814;11.134;2023-05-15T12:52:45;3.50;;;2.40;;
1811;SDS011;904;47.814;11.134;2023-05-15T12:55:23;4.27;;;2.80;;
1811;SDS011;904;47.814;11.134;2023-05-15T12:57:52;4.17;;;2.90;;
1811;SDS011;904;47.814;11.134;2023-05-15T13:00:22;3.60;;;2.20;;
1811;SDS011;904;47.814;11.134;2023-05-15T13:02:49;3.80;;;2.33;;
1811;SDS011;904;47.814;11.134;2023-05-15T13:05:17;4.77;;;3.03;;
1811;SDS011;904;47.814;11.134;2023-05-15T13:07:44;3.57;;;2.30;;
1811;SDS011;904;47.814;11.134;2023-05-15T13:10:12;3.43;;;2.53;;
1811;SDS011;904;47.814;11.134;2023-05-15T13:12:43;5.67;;;3.37;;
1811;SDS011;904;47.814;11.134;2023-05-15T13:15:27;4.30;;;2.17;;
1811;SDS011;904;47.814;11.134;2023-05-15T13:17:59;3.60;;;2.10;;
1811;SDS011;904;47.814;11.134;2023-05-15T13:20:26;3.80;;;2.53;;
1811;SDS011;904;47.814;11.134;2023-05-15T13:22:55;6.37;;;2.00;;
1811;SDS011;904;47.814;11.134;2023-05-15T13:25:21;3.20;;;1.70;;
1811;SDS011;904;47.814;11.134;2023-05-15T13:27:50;3.00;;;1.90;;
1811;SDS011;904;47.814;11.134;2023-05-15T13:30:17;4.30;;;2.37;;
1811;SDS011;904;47.814;11.134;2023-05-15T13:32:45;6.80;;;1.90;;
1811;SDS011;904;47.814;11.134;2023-05-15T13:35:12;3.10;;;2.40;;
1811;SDS011;904;47.814;11.134;2023-05-15T13:37:39;5.40;;;3.57;;
1811;SDS011;904;47.814;11.134;2023-05-15T13:40:07;5.50;;;2.03;;
1811;SDS011;904;47.814;11.134;2023-05-15T13:42:35;4.70;;;2.37;;
1811;SDS011;904;47.814;11.134;2023-05-15T13:45:05;3.47;;;2.30;;
1811;SDS011;904;47.814;11.134;2023-05-15T13:47:33;3.93;;;2.03;;
1811;SDS011;904;47.814;11.134;2023-05-15T13:50:01;3.40;;;2.43;;
1811;SDS011;904;47.814;11.134;2023-05-15T13:52:28;5.20;;;2.37;;
1811;SDS011;904;47.814;11.134;2023-05-15T13:54:55;4.80;;;2.50;;
1811;SDS011;904;47.814;11.134;2023-05-15T13:57:22;4.33;;;2.07;;
1811;SDS011;904;47.814;11.134;2023-05-15T13:59:49;3.33;;;2.00;;
1811;SDS011;904;47.814;11.134;2023-05-15T14:02:18;4.13;;;2.00;;
1811;SDS011;904;47.814;11.134;2023-05-15T14:04:45;3.70;;;2.07;;
1811;SDS011;904;47.814;11.134;2023-05-15T14:07:12;4.60;;;1.73;;
1811;SDS011;904;47.814;11.134;2023-05-15T14:09:39;2.77;;;1.73;;
1811;SDS011;904;47.814;11.134;2023-05-15T14:12:06;4.10;;;2.30;;
1811;SDS011;904;47.814;11.134;2023-05-15T14:14:35;3.50;;;2.60;;
1811;SDS011;904;47.814;11.134;2023-05-15T14:17:02;3.03;;;1.87;;
1811;SDS011;904;47.814;11.134;2023-05-15T14:19:31;3.13;;;1.70;;
1811;SDS011;904;47.814;11.134;2023-05-15T14:21:58;3.40;;;1.70;;
1811;SDS011;904;47.814;11.134;2023-05-15T14:24:28;3.00;;;1.83;;
1811;SDS011;904;47.814;11.134;2023-05-15T14:26:56;3.73;;;2.10;;
1811;SDS011;904;47.814;11.134;2023-05-15T14:29:22;2.87;;;1.83;;
1811;SDS011;904;47.814;11.134;2023-05-15T14:31:49;3.63;;;2.30;;
1811;SDS011;904;47.814;11.134;2023-05-15T14:34:17;3.20;;;1.70;;
1811;SDS011;904;47.814;11.134;2023-05-15T14:36:47;3.10;;;2.17;;
1811;SDS011;904;47.814;11.134;2023-05-15T14:39:15;2.87;;;2.23;;
1811;SDS011;904;47.814;11.134;2023-05-15T14:41:42;2.43;;;1.63;;
1811;SDS011;904;47.814;11.134;2023-05-15T14:44:10;4.03;;;1.60;;
1811;SDS011;904;47.814;11.134;2023-05-15T14:46:37;3.43;;;1.80;;
1811;SDS011;904;47.814;11.134;2023-05-15T14:49:05;2.50;;;1.53;;
1811;SDS011;904;47.814;11.134;2023-05-15T14:51:32;3.90;;;1.80;;
1811;SDS011;904;47.814;11.134;2023-05-15T14:54:01;3.20;;;1.80;;
1811;SDS011;904;47.814;11.134;2023-05-15T14:56:29;2.90;;;1.50;;
1811;SDS011;904;47.814;11.134;2023-05-15T14:58:56;2.40;;;1.43;;
1811;SDS011;904;47.814;11.134;2023-05-15T15:01:22;3.23;;;1.60;;
1811;SDS011;904;47.814;11.134;2023-05-15T15:03:49;2.93;;;1.60;;
1811;SDS011;904;47.814;11.134;2023-05-15T15:06:16;3.40;;;1.47;;
1811;SDS011;904;47.814;11.134;2023-05-15T15:08:43;4.00;;;1.50;;
1811;SDS011;904;47.814;11.134;2023-05-15T15:11:12;4.40;;;1.83;;
1811;SDS011;904;47.814;11.134;2023-05-15T15:13:38;3.10;;;1.80;;
1811;SDS011;904;47.814;11.134;2023-05-15T15:16:05;4.77;;;2.33;;
1811;SDS011;904;47.814;11.134;2023-05-15T15:18:33;3.40;;;2.30;;
1811;SDS011;904;47.814;11.134;2023-05-15T15:21:00;3.47;;;2.13;;
1811;SDS011;904;47.814;11.134;2023-05-15T15:23:28;2.70;;;2.00;;
1811;SDS011;904;47.814;11.134;2023-05-15T15:25:55;5.53;;;1.97;;
1811;SDS011;904;47.814;11.134;2023-05-15T15:28:24;2.73;;;1.93;;
1811;SDS011;904;47.814;11.134;2023-05-15T15:30:53;3.20;;;2.20;;
1811;SDS011;904;47.814;11.134;2023-05-15T15:33:20;7.20;;;1.90;;
1811;SDS011;904;47.814;11.134;2023-05-15T15:35:47;3.20;;;2.07;;
1811;SDS011;904;47.814;11.134;2023-05-15T15:38:14;2.70;;;1.93;;
1811;SDS011;904;47.814;11.134;2023-05-15T15:40:40;2.90;;;1.73;;